Raft Island, Washington
Current Conditions -  °F | °C
As of 11:27 PM on Wednesday 17 Dec 2014 (Local Time) from KTIW Reporting Station
Light Rain Light Rain  
Wind Chill: 43°   Ceiling: 400
Heat Index: 45°   Visibility: 3mi
Dew Point: 43°   Wind: 5mph
Humidity: 93%   Direction: 200°SSW
Pressure: 29.93"   Gusts: NA
Location:  47.2986°N, 122.616°W
Report Text: KTIW 180727Z AUTO 20004KT 3SM -RA BR BKN004 BKN012 OVC024 07/06 A2993 RMK AO2 CIG 002V009 P0001 T00720061
Loading
Personal Weather Stations






























Interactive Weather Map New forecast layout! Learn more

10-Day Weather Forecast

Advertisements
Track Severe Weather on mobile